Time;durP1;ratioP1;P1;durP2;ratioP2;P2;SDS_P1;SDS_P2;PMS_P1;PMS_P2;Temp;Humidity;BMP_temperature;BMP_pressure;BME280_temperature;BME280_humidity;BME280_pressure;Samples;Min_cycle;Max_cycle;Signal;HPM_P1;HPM_P2
2022/03/05 00:00:46;;;;;;;29.58;11.73;;;;;;;0.44;77.56;99087.53;5058219;28;20071;-60
2022/03/05 00:03:32;;;;;;;25.30;10.40;;;;;;;0.30;77.93;99090.38;5064148;28;20060;-61
2022/03/05 00:06:18;;;;;;;28.65;11.57;;;;;;;0.23;78.49;99077.63;5072171;28;20483;-61
2022/03/05 00:09:04;;;;;;;27.60;11.27;;;;;;;0.31;78.00;99086.94;5058152;28;20052;-61
2022/03/05 00:11:50;;;;;;;27.20;10.70;;;;;;;0.26;77.99;99079.31;5073341;28;20083;-62
2022/03/05 00:14:36;;;;;;;26.55;10.15;;;;;;;0.13;78.67;99075.28;5073294;28;20063;-62
2022/03/05 00:17:22;;;;;;;27.38;10.43;;;;;;;0.09;79.22;99087.38;5072040;28;20533;-63
2022/03/05 00:20:09;;;;;;;23.95;10.93;;;;;;;0.41;77.14;99087.59;5063802;28;20071;-61
2022/03/05 00:22:55;;;;;;;28.35;9.68;;;;;;;0.47;76.52;99074.56;5063830;28;20044;-63
2022/03/05 00:25:40;;;;;;;26.95;11.38;;;;;;;0.02;78.17;99078.91;5074172;28;20055;-61
2022/03/05 00:28:26;;;;;;;28.63;10.52;;;;;;;-0.08;78.89;99075.66;5072779;28;20063;-61
2022/03/05 00:31:12;;;;;;;25.33;10.00;;;;;;;-0.14;78.87;99066.34;5072291;28;20052;-61
2022/03/05 00:33:58;;;;;;;24.30;9.55;;;;;;;-0.10;79.12;99069.72;5073119;28;20417;-62
2022/03/05 00:36:43;;;;;;;25.60;9.90;;;;;;;0.04;78.47;99064.28;5071818;28;20056;-61
2022/03/05 00:39:30;;;;;;;26.38;9.95;;;;;;;0.04;78.52;99071.16;5072894;28;20051;-62
2022/03/05 00:42:15;;;;;;;20.75;8.70;;;;;;;0.28;77.30;99072.38;5072878;28;20052;-61
2022/03/05 00:45:01;;;;;;;25.85;9.48;;;;;;;0.58;76.00;99075.16;5072051;28;20056;-61
2022/03/05 00:47:47;;;;;;;25.05;9.40;;;;;;;0.54;75.61;99072.69;5072649;28;20499;-61
2022/03/05 00:50:33;;;;;;;23.90;10.82;;;;;;;0.28;76.84;99071.53;5072579;28;20056;-61
2022/03/05 00:53:21;;;;;;;23.55;10.07;;;;;;;0.56;76.05;99079.50;5057762;28;20063;-62
2022/03/05 00:56:06;;;;;;;25.50;9.68;;;;;;;0.65;75.42;99077.59;5043686;28;20083;-61
2022/03/05 00:58:52;;;;;;;21.38;9.32;;;;;;;0.53;76.16;99076.13;5072534;28;20068;-61
2022/03/05 01:01:40;;;;;;;22.90;10.40;;;;;;;0.39;76.79;99077.31;5072416;28;20052;-61
2022/03/05 01:04:25;;;;;;;23.10;9.90;;;;;;;0.38;76.76;99075.59;5072659;28;20115;-62
2022/03/05 01:07:11;;;;;;;27.52;10.18;;;;;;;0.23;77.63;99079.34;5067964;28;20060;-61
2022/03/05 01:09:57;;;;;;;25.17;8.90;;;;;;;0.63;75.60;99076.78;5072483;28;20051;-61
2022/03/05 01:12:44;;;;;;;20.38;7.78;;;;;;;0.83;73.90;99084.06;5072372;28;20052;-61
2022/03/05 01:15:29;;;;;;;18.50;8.23;;;;;;;0.85;74.06;99090.88;5072250;28;20055;-61
2022/03/05 01:18:14;;;;;;;23.88;9.50;;;;;;;0.78;74.31;99097.09;5072464;28;20056;-61
2022/03/05 01:21:00;;;;;;;20.98;8.57;;;;;;;0.76;74.18;99085.94;5075903;28;20072;-61
2022/03/05 01:23:46;;;;;;;24.67;10.00;;;;;;;0.83;73.55;99087.47;5066980;28;20076;-61
2022/03/05 01:26:32;;;;;;;30.15;11.20;;;;;;;0.74;74.55;99082.53;5061241;28;20056;-62
2022/03/05 01:29:18;;;;;;;26.60;10.13;;;;;;;0.73;74.61;99088.59;5076465;28;20075;-61
2022/03/05 01:32:04;;;;;;;28.85;10.07;;;;;;;0.43;76.63;99090.97;5076073;28;20060;-62
2022/03/05 01:34:50;;;;;;;21.08;9.50;;;;;;;0.68;75.33;99093.88;5081886;28;20060;-62
2022/03/05 01:37:36;;;;;;;21.27;9.35;;;;;;;0.73;74.73;99093.75;5061195;28;20064;-61
2022/03/05 01:40:22;;;;;;;23.63;8.90;;;;;;;0.89;74.28;99088.22;5061033;28;20059;-61
2022/03/05 01:43:08;;;;;;;21.90;8.43;;;;;;;0.75;74.88;99080.81;5076157;28;20068;-61
2022/03/05 01:45:54;;;;;;;24.33;10.20;;;;;;;0.73;75.29;99081.69;5060625;28;20071;-62
2022/03/05 01:48:40;;;;;;;24.55;9.60;;;;;;;0.73;75.53;99089.44;5075879;28;20058;-62
2022/03/05 01:51:27;;;;;;;24.98;9.35;;;;;;;0.73;75.62;99089.44;5060447;28;20060;-62
2022/03/05 01:54:13;;;;;;;23.90;9.35;;;;;;;0.95;74.27;99083.78;5060890;28;20403;-62
2022/03/05 01:56:59;;;;;;;19.73;8.13;;;;;;;1.05;73.71;99086.13;5075993;28;20063;-61
2022/03/05 01:59:46;;;;;;;25.70;10.57;;;;;;;1.05;74.52;99087.00;5075678;28;20052;-61
2022/03/05 02:02:31;;;;;;;23.25;10.02;;;;;;;0.91;75.63;99084.75;5075549;28;20056;-61
2022/03/05 02:05:17;;;;;;;20.90;8.23;;;;;;;0.93;74.44;99085.53;5074563;28;20075;-61
2022/03/05 02:08:05;;;;;;;21.83;9.18;;;;;;;1.17;73.53;99090.16;5066058;28;20060;-61
2022/03/05 02:10:53;;;;;;;26.60;11.27;;;;;;;0.94;76.05;99087.25;5080176;28;20411;-61
2022/03/05 02:13:41;;;;;;;22.25;10.18;;;;;;;0.77;76.10;99081.66;5081475;28;20056;-62
2022/03/05 02:16:26;;;;;;;19.50;9.05;;;;;;;0.85;76.30;99084.88;5075909;28;20052;-61
2022/03/05 02:19:13;;;;;;;21.35;8.20;;;;;;;0.88;75.70;99079.66;5076076;28;20048;-61
2022/03/05 02:21:58;;;;;;;25.55;10.75;;;;;;;1.01;75.57;99077.63;5061306;28;20075;-62
2022/03/05 02:24:44;;;;;;;22.90;10.48;;;;;;;1.07;74.42;99074.03;5067749;28;20067;-62
2022/03/05 02:27:31;;;;;;;26.50;10.27;;;;;;;0.95;75.93;99080.34;5054400;28;20060;-60
2022/03/05 02:30:18;;;;;;;17.50;8.02;;;;;;;1.07;73.85;99077.47;5086318;28;20051;-62
2022/03/05 02:33:05;;;;;;;20.23;9.45;;;;;;;1.05;74.45;99074.09;5069372;28;20067;-67
2022/03/05 02:35:51;;;;;;;27.70;11.07;;;;;;;0.65;77.70;99081.03;5074075;28;20059;-62
2022/03/05 02:38:37;;;;;;;21.40;9.25;;;;;;;0.90;75.45;99083.03;5059902;28;20419;-62
2022/03/05 02:41:24;;;;;;;20.50;9.48;;;;;;;0.97;75.27;99079.44;5074919;28;20064;-62
2022/03/05 02:44:10;;;;;;;26.10;10.82;;;;;;;0.72;76.85;99082.56;5051907;28;20110;-61
2022/03/05 02:46:58;;;;;;;20.30;9.02;;;;;;;0.82;76.09;99087.53;5074488;28;20051;-62
2022/03/05 02:49:43;;;;;;;26.02;9.40;;;;;;;1.03;74.88;99081.00;5074450;28;20514;-61
2022/03/05 02:52:29;;;;;;;24.98;10.43;;;;;;;0.94;75.07;99089.84;5074608;28;20060;-62
2022/03/05 02:55:15;;;;;;;25.45;9.10;;;;;;;1.16;74.28;99086.72;5063741;28;20059;-61
2022/03/05 02:58:03;;;;;;;25.05;10.48;;;;;;;1.12;73.86;99090.28;5074381;28;20056;-61
2022/03/05 03:00:50;;;;;;;22.50;9.35;;;;;;;0.96;75.20;99094.97;5073488;28;20055;-61
2022/03/05 03:03:36;;;;;;;28.40;10.82;;;;;;;0.97;75.77;99089.75;5073199;28;20043;-61
2022/03/05 03:06:21;;;;;;;19.33;8.57;;;;;;;0.99;75.09;99084.56;5065319;28;20052;-61
2022/03/05 03:09:07;;;;;;;26.25;11.25;;;;;;;0.96;76.06;99082.06;5065094;28;20064;-61
2022/03/05 03:11:53;;;;;;;20.75;8.88;;;;;;;0.91;74.77;99089.06;5074107;28;20056;-62
2022/03/05 03:14:39;;;;;;;21.45;8.77;;;;;;;1.02;74.82;99087.06;5043727;28;20059;-61
2022/03/05 03:17:25;;;;;;;19.40;8.38;;;;;;;0.96;74.57;99082.88;5072822;28;20079;-61
2022/03/05 03:20:12;;;;;;;18.10;9.38;;;;;;;1.14;74.31;99087.66;5073832;28;20067;-61
2022/03/05 03:22:58;;;;;;;19.35;7.93;;;;;;;1.25;73.47;99085.66;5073884;28;20051;-61
2022/03/05 03:25:44;;;;;;;19.88;8.43;;;;;;;1.35;72.89;99073.34;5058322;28;20507;-61
2022/03/05 03:28:30;;;;;;;22.75;9.15;;;;;;;1.41;72.71;99073.19;5052714;28;20059;-62
2022/03/05 03:31:15;;;;;;;29.25;12.10;;;;;;;1.17;74.75;99083.25;5058425;28;20059;-62
2022/03/05 03:34:02;;;;;;;19.42;8.38;;;;;;;1.21;72.78;99078.84;5079582;28;20056;-62
2022/03/05 03:36:47;;;;;;;17.45;7.22;;;;;;;1.47;71.52;99080.78;5072691;28;20411;-63
2022/03/05 03:39:33;;;;;;;21.92;9.57;;;;;;;1.46;72.65;99083.41;5050648;28;20403;-61
2022/03/05 03:42:19;;;;;;;20.25;9.32;;;;;;;1.56;72.48;99084.00;5072411;28;20060;-62
2022/03/05 03:45:05;;;;;;;17.80;6.93;;;;;;;1.51;71.31;99085.84;5073359;28;20076;-61
2022/03/05 03:47:52;;;;;;;31.65;10.52;;;;;;;1.38;72.39;99073.28;5078185;28;20055;-62
2022/03/05 03:50:38;;;;;;;22.92;10.05;;;;;;;1.32;72.50;99086.34;5073387;28;20052;-61
2022/03/05 03:53:24;;;;;;;20.88;9.88;;;;;;;1.23;73.30;99084.84;5064285;28;20495;-61
2022/03/05 03:56:11;;;;;;;19.20;8.68;;;;;;;1.33;72.56;99085.44;5052603;28;20063;-61
2022/03/05 03:58:56;;;;;;;22.45;8.55;;;;;;;1.28;73.15;99083.00;5073376;28;20059;-61
2022/03/05 04:01:42;;;;;;;21.70;9.18;;;;;;;1.43;72.00;99086.06;5060623;28;20051;-61
2022/03/05 04:04:30;;;;;;;19.77;8.88;;;;;;;1.45;72.07;99087.72;5039159;28;20056;-61
2022/03/05 04:10:21;;;;;;;22.85;8.95;;;;;;;1.38;71.94;99081.03;5073154;28;20089;-62
2022/03/05 04:13:07;;;;;;;27.02;10.32;;;;;;;1.43;71.88;99078.31;5055070;28;20510;-61
2022/03/05 04:15:53;;;;;;;23.50;10.32;;;;;;;1.21;72.42;99076.28;5042633;28;20060;-65
2022/03/05 04:18:40;;;;;;;21.85;9.90;;;;;;;1.06;73.67;99078.34;5062933;28;20063;-60
2022/03/05 04:21:25;;;;;;;26.63;11.50;;;;;;;1.18;73.49;99082.38;5063718;28;20399;-60
2022/03/05 04:24:11;;;;;;;22.13;10.13;;;;;;;1.33;72.86;99086.31;5063743;28;20126;-61
2022/03/05 04:26:58;;;;;;;17.42;9.05;;;;;;;1.39;71.82;99081.88;5078639;28;20376;-60
2022/03/05 04:29:44;;;;;;;21.60;9.82;;;;;;;1.52;71.36;99079.81;5073747;28;20056;-61
2022/03/05 04:32:30;;;;;;;22.20;9.07;;;;;;;1.48;71.82;99085.03;5057843;28;20056;-60
2022/03/05 04:35:16;;;;;;;23.50;8.55;;;;;;;1.27;72.19;99085.63;5072908;28;20052;-60
2022/03/05 04:38:02;;;;;;;24.88;9.05;;;;;;;1.23;72.12;99083.09;5057888;28;20087;-61
2022/03/05 04:40:49;;;;;;;20.80;8.40;;;;;;;1.35;71.56;99091.44;5072758;28;20056;-61
2022/03/05 04:43:35;;;;;;;21.00;8.55;;;;;;;1.28;71.40;99095.91;5072102;28;20059;-61
2022/03/05 04:46:20;;;;;;;23.15;8.35;;;;;;;1.33;71.55;99099.22;5057004;28;20384;-62
2022/03/05 04:49:06;;;;;;;17.88;8.40;;;;;;;1.35;71.19;99092.25;5062627;28;20056;-62
2022/03/05 04:51:52;;;;;;;30.77;12.32;;;;;;;1.44;70.99;99090.34;5071918;28;20127;-63
2022/03/05 04:54:38;;;;;;;25.45;9.75;;;;;;;1.01;73.86;99100.00;5072599;28;20052;-62
2022/03/05 04:57:24;;;;;;;21.48;9.77;;;;;;;0.93;73.83;99100.19;5066508;28;20059;-62
2022/03/05 05:00:11;;;;;;;19.23;8.50;;;;;;;1.05;72.99;99096.44;5074614;28;20047;-60
2022/03/05 05:02:57;;;;;;;23.95;9.85;;;;;;;1.08;73.58;99089.50;5075519;28;20056;-61
2022/03/05 05:05:42;;;;;;;18.42;8.27;;;;;;;1.16;72.40;99103.97;5074509;28;20447;-63
2022/03/05 05:08:29;;;;;;;25.95;9.30;;;;;;;1.26;72.13;99107.16;5075247;28;20522;-62
2022/03/05 05:11:15;;;;;;;23.45;8.93;;;;;;;1.26;71.70;99102.81;5075514;28;20044;-62
2022/03/05 05:14:00;;;;;;;20.65;9.48;;;;;;;1.25;72.25;99106.31;5075439;28;20060;-61
2022/03/05 05:16:46;;;;;;;19.27;8.50;;;;;;;1.35;71.69;99110.34;5075282;28;20510;-60
2022/03/05 05:19:32;;;;;;;27.75;11.50;;;;;;;1.11;73.59;99106.63;5075403;28;20051;-59
2022/03/05 05:22:17;;;;;;;28.00;10.80;;;;;;;1.04;73.46;99103.38;5074137;28;20051;-61
2022/03/05 05:25:03;;;;;;;26.90;11.05;;;;;;;1.19;73.21;99104.72;5059961;28;20064;-61
2022/03/05 05:27:49;;;;;;;23.13;10.25;;;;;;;1.07;74.42;99102.44;5075098;28;20051;-63
2022/03/05 05:30:37;;;;;;;24.27;9.38;;;;;;;1.02;73.92;99104.28;5075318;28;20056;-65
2022/03/05 05:33:23;;;;;;;21.95;9.25;;;;;;;1.04;74.15;99108.53;5060828;28;20079;-61
2022/03/05 05:36:09;;;;;;;23.20;10.13;;;;;;;1.28;72.69;99108.81;5076743;28;20518;-61
2022/03/05 05:38:55;;;;;;;34.78;13.07;;;;;;;0.81;75.73;99099.59;5061898;28;20059;-61
2022/03/05 05:41:43;;;;;;;28.67;12.95;;;;;;;0.82;75.47;99103.84;5075045;28;20043;-62
2022/03/05 05:44:29;;;;;;;21.45;10.23;;;;;;;0.91;75.00;99102.81;5074960;28;20067;-63
2022/03/05 05:47:14;;;;;;;25.25;9.98;;;;;;;1.18;73.56;99105.59;5060998;28;20051;-60
2022/03/05 05:50:00;;;;;;;22.15;9.38;;;;;;;1.05;73.27;99102.47;5082403;28;20503;-60
2022/03/05 05:52:46;;;;;;;23.13;9.68;;;;;;;0.97;74.23;99104.38;5075973;28;20059;-60
2022/03/05 05:55:32;;;;;;;28.20;12.20;;;;;;;1.00;74.43;99104.31;5079746;28;20150;-61
2022/03/05 05:58:18;;;;;;;23.80;9.90;;;;;;;0.83;75.15;99112.44;5069972;28;20064;-61
2022/03/05 06:01:03;;;;;;;23.80;11.25;;;;;;;0.71;76.18;99116.16;5059714;28;20060;-62
2022/03/05 06:03:53;;;;;;;27.88;11.15;;;;;;;0.54;76.51;99117.38;5074486;28;20059;-61
2022/03/05 06:06:39;;;;;;;19.50;7.72;;;;;;;1.05;84.84;99114.50;5075267;28;20060;-62
2022/03/05 06:09:24;;;;;;;15.23;6.75;;;;;;;1.66;85.08;99121.63;5074480;28;20506;-61
2022/03/05 06:12:10;;;;;;;16.17;6.80;;;;;;;1.54;86.07;99115.03;5074326;28;20515;-63
2022/03/05 06:14:55;;;;;;;22.35;9.57;;;;;;;1.31;81.46;99131.09;5064832;28;20075;-61
2022/03/05 06:17:42;;;;;;;25.10;9.05;;;;;;;0.83;81.06;99126.19;5074513;28;20060;-71
2022/03/05 06:20:28;;;;;;;18.73;7.75;;;;;;;0.86;81.52;99130.44;5074573;28;20067;-62
2022/03/05 06:23:13;;;;;;;22.95;10.15;;;;;;;0.52;79.52;99126.88;5074199;28;20078;-65
2022/03/05 06:25:59;;;;;;;20.75;9.80;;;;;;;0.44;81.72;99139.09;5076726;28;20072;-65
2022/03/05 06:28:45;;;;;;;26.70;10.60;;;;;;;0.61;80.23;99133.56;5060491;28;20526;-63
2022/03/05 06:31:31;;;;;;;25.17;10.45;;;;;;;0.41;82.87;99134.00;5074112;28;20052;-64
2022/03/05 06:34:17;;;;;;;26.85;10.75;;;;;;;0.77;80.55;99146.13;5073982;28;20052;-62
2022/03/05 06:37:03;;;;;;;25.48;9.48;;;;;;;0.75;79.52;99142.72;5073583;28;20100;-63
2022/03/05 06:39:49;;;;;;;25.42;10.20;;;;;;;1.07;78.61;99142.00;5064378;28;20068;-63
2022/03/05 06:42:37;;;;;;;22.02;9.52;;;;;;;1.01;79.75;99155.06;5073773;28;20073;-63
2022/03/05 06:45:23;;;;;;;22.80;10.18;;;;;;;1.24;77.65;99156.22;5055891;28;20060;-66
2022/03/05 06:48:09;;;;;;;24.75;9.50;;;;;;;1.44;76.80;99153.16;5058712;28;20047;-66
2022/03/05 06:50:55;;;;;;;24.08;10.30;;;;;;;1.46;77.16;99153.97;5058549;28;20063;-64
2022/03/05 06:53:40;;;;;;;18.65;7.90;;;;;;;1.80;75.86;99147.09;5057787;28;20048;-66
2022/03/05 06:56:26;;;;;;;23.98;9.68;;;;;;;2.01;73.26;99155.16;5065401;28;20056;-65
2022/03/05 06:59:12;;;;;;;18.35;7.70;;;;;;;2.19;74.14;99150.38;5057479;28;20052;-65
2022/03/05 07:01:58;;;;;;;21.60;9.07;;;;;;;2.22;73.13;99155.44;5038143;28;20064;-66
2022/03/05 07:04:44;;;;;;;24.80;10.82;;;;;;;1.68;73.92;99157.75;5038011;28;20056;-63
2022/03/05 07:07:30;;;;;;;26.90;11.35;;;;;;;1.66;74.17;99155.22;5062899;28;20056;-63
2022/03/05 07:10:16;;;;;;;23.67;10.23;;;;;;;1.46;75.15;99155.72;5054648;28;20056;-65
2022/03/05 07:13:02;;;;;;;22.45;10.05;;;;;;;2.21;94.00;99154.63;5052680;28;20056;-61
2022/03/05 07:15:47;;;;;;;28.38;11.43;;;;;;;3.35;79.48;99157.28;5054200;28;20056;-60
2022/03/05 07:18:33;;;;;;;29.90;12.32;;;;;;;3.37;73.37;99156.38;5054254;28;20499;-59
2022/03/05 07:21:19;;;;;;;28.45;12.00;;;;;;;3.05;70.46;99153.06;5057264;28;20060;-60
2022/03/05 07:24:05;;;;;;;30.48;12.50;;;;;;;3.06;71.77;99154.75;5067051;28;20051;-58
2022/03/05 07:26:51;;;;;;;28.63;11.50;;;;;;;2.98;69.58;99160.19;5060436;28;20060;-59
2022/03/05 07:29:36;;;;;;;26.25;11.15;;;;;;;2.75;68.82;99160.88;5042056;28;20060;-58
2022/03/05 07:32:22;;;;;;;32.28;12.10;;;;;;;2.34;69.89;99164.63;5057523;28;20055;-58
2022/03/05 07:35:09;;;;;;;27.10;11.48;;;;;;;1.92;72.00;99171.78;5061107;28;20052;-60
2022/03/05 07:37:54;;;;;;;26.25;10.75;;;;;;;1.88;71.98;99161.56;5045274;28;20059;-59
2022/03/05 07:40:40;;;;;;;26.80;10.20;;;;;;;1.83;72.92;99164.25;5059858;28;20055;-60
2022/03/05 07:43:26;;;;;;;26.02;10.48;;;;;;;1.82;72.38;99173.75;5057084;28;20103;-59
2022/03/05 07:46:12;;;;;;;26.88;10.35;;;;;;;1.99;72.07;99177.63;5057879;28;20043;-57
2022/03/05 07:48:59;;;;;;;23.98;10.88;;;;;;;1.78;71.82;99172.13;5047801;28;20068;-57
2022/03/05 07:51:45;;;;;;;23.27;9.98;;;;;;;4.06;80.61;99174.81;5052457;28;20399;-57
2022/03/05 07:54:30;;;;;;;25.38;10.70;;;;;;;3.01;70.29;99172.16;5062188;28;20068;-58
2022/03/05 07:57:16;;;;;;;24.98;11.00;;;;;;;2.63;70.16;99170.69;5061916;28;20059;-58
2022/03/05 08:00:05;;;;;;;23.45;10.73;;;;;;;2.62;70.28;99165.56;5057186;28;20079;-57
2022/03/05 08:02:58;;;;;;;24.52;10.32;;;;;;;2.11;71.79;99173.00;5056698;28;20048;-57
2022/03/05 08:05:44;;;;;;;24.48;10.05;;;;;;;2.40;71.18;99173.97;5066706;28;20064;-58
2022/03/05 08:08:30;;;;;;;24.50;9.43;;;;;;;2.65;71.03;99168.06;5051754;28;20063;-60
2022/03/05 08:11:15;;;;;;;28.35;11.65;;;;;;;2.69;69.11;99164.50;5036206;28;20503;-58
2022/03/05 08:14:01;;;;;;;28.90;10.43;;;;;;;2.62;69.92;99174.19;5056587;28;20059;-58
2022/03/05 08:16:46;;;;;;;27.38;10.43;;;;;;;2.81;68.73;99174.47;5062226;28;20052;-57
2022/03/05 08:19:32;;;;;;;27.88;10.55;;;;;;;2.79;68.79;99175.44;5071990;28;20083;-58
2022/03/05 08:22:18;;;;;;;32.63;10.88;;;;;;;2.62;69.84;99169.00;5064205;28;20051;-59
2022/03/05 08:25:04;;;;;;;26.15;11.05;;;;;;;2.44;70.22;99173.81;5062258;28;20059;-59
2022/03/05 08:27:50;;;;;;;25.65;9.95;;;;;;;2.58;69.80;99176.00;5071530;28;20063;-57
2022/03/05 08:30:35;;;;;;;27.48;11.55;;;;;;;2.63;69.78;99175.03;5071417;28;20095;-57
2022/03/05 08:33:21;;;;;;;27.00;11.57;;;;;;;2.28;70.40;99175.13;5056242;28;20123;-60
2022/03/05 08:36:08;;;;;;;26.00;11.70;;;;;;;2.83;68.95;99175.28;5055371;28;20060;-57
2022/03/05 08:38:54;;;;;;;29.98;10.85;;;;;;;3.22;66.81;99178.41;5061790;28;20059;-58
2022/03/05 08:41:40;;;;;;;28.10;11.88;;;;;;;2.87;67.98;99180.38;5056274;28;20060;-58
2022/03/05 08:44:26;;;;;;;27.73;10.75;;;;;;;3.03;67.15;99186.78;5070003;28;20067;-58
2022/03/05 08:47:12;;;;;;;27.85;11.88;;;;;;;2.78;67.93;99177.16;5071473;28;20056;-58
2022/03/05 08:49:57;;;;;;;25.40;10.52;;;;;;;3.02;67.60;99176.47;5071468;28;20067;-57
2022/03/05 08:52:43;;;;;;;24.88;10.32;;;;;;;3.51;65.69;99186.16;5071872;28;20071;-58
2022/03/05 08:55:29;;;;;;;25.13;10.93;;;;;;;3.43;65.64;99192.44;5080316;28;20055;-57
2022/03/05 08:58:15;;;;;;;27.45;11.35;;;;;;;2.95;68.08;99186.97;5091442;28;20059;-56
2022/03/05 09:01:02;;;;;;;29.85;12.80;;;;;;;2.97;67.76;99184.34;5075885;28;20063;-57
2022/03/05 09:03:48;;;;;;;28.13;11.68;;;;;;;2.86;68.47;99189.03;5091300;28;20054;-60
2022/03/05 09:06:34;;;;;;;28.40;9.60;;;;;;;3.98;90.67;99190.66;5056242;28;20056;-49
2022/03/05 09:09:20;;;;;;;25.50;10.73;;;;;;;3.42;68.14;99192.47;5050446;28;20059;-60
2022/03/05 09:12:07;;;;;;;29.83;11.68;;;;;;;2.91;69.51;99187.13;5049966;28;20047;-58
2022/03/05 09:14:53;;;;;;;23.40;10.18;;;;;;;4.70;73.64;99188.09;5050641;28;20404;-57
2022/03/05 09:17:38;;;;;;;27.42;11.32;;;;;;;3.81;66.24;99192.06;5051701;28;20064;-58
2022/03/05 09:20:24;;;;;;;29.85;12.40;;;;;;;3.21;68.33;99197.47;5059308;28;20142;-58
2022/03/05 09:23:10;;;;;;;30.27;10.88;;;;;;;3.41;67.05;99194.22;5063664;28;20056;-57
2022/03/05 09:25:56;;;;;;;25.55;10.65;;;;;;;3.53;66.34;99198.16;5064659;28;20051;-57
2022/03/05 09:28:42;;;;;;;28.98;12.27;;;;;;;3.22;67.16;99193.09;5050726;28;20510;-57
2022/03/05 09:31:27;;;;;;;25.83;11.50;;;;;;;3.51;66.88;99193.94;5050924;28;20052;-58
2022/03/05 09:34:14;;;;;;;29.05;11.73;;;;;;;3.31;66.93;99201.44;5050591;28;20060;-58
2022/03/05 09:36:59;;;;;;;26.58;10.40;;;;;;;3.54;66.19;99197.25;5041321;28;20060;-58
2022/03/05 09:39:47;;;;;;;26.38;11.27;;;;;;;3.72;65.74;99191.53;5032959;28;20106;-58
2022/03/05 09:42:33;;;;;;;27.77;10.77;;;;;;;4.03;64.19;99203.47;5074785;28;20055;-59
2022/03/05 09:45:18;;;;;;;28.88;11.75;;;;;;;3.91;64.93;99200.38;5074498;28;20075;-58
2022/03/05 09:48:05;;;;;;;30.42;12.27;;;;;;;3.50;66.25;99200.00;5063855;28;20554;-58
2022/03/05 09:50:50;;;;;;;27.65;11.35;;;;;;;3.96;64.20;99195.03;5059066;28;20407;-58
2022/03/05 09:53:36;;;;;;;30.02;12.15;;;;;;;4.11;63.57;99198.84;5075857;28;20055;-58
2022/03/05 09:56:22;;;;;;;26.08;11.63;;;;;;;4.85;62.77;99201.41;5060438;28;20064;-58
2022/03/05 09:59:08;;;;;;;26.92;11.10;;;;;;;4.18;63.37;99200.31;5054111;28;20055;-58
2022/03/05 10:01:54;;;;;;;25.95;10.98;;;;;;;4.24;62.22;99201.00;5053142;28;20048;-58
2022/03/05 10:04:41;;;;;;;23.08;10.45;;;;;;;5.03;60.23;99190.31;5055386;28;20170;-58
2022/03/05 10:07:26;;;;;;;26.00;10.85;;;;;;;5.04;59.95;99194.59;5054380;28;20060;-57
2022/03/05 10:10:12;;;;;;;27.63;11.13;;;;;;;4.49;60.96;99190.59;5044978;28;20408;-58
2022/03/05 10:13:15;;;;;;;29.80;10.95;;;;;;;3.84;61.95;99196.28;5053059;28;20072;-58
2022/03/05 10:16:03;;;;;;;24.77;12.05;;;;;;;6.22;100.00;99195.09;5053531;28;20057;-58
2022/03/05 10:18:49;;;;;;;26.70;10.25;;;;;;;9.09;85.81;99188.09;5042912;28;20089;-58
2022/03/05 10:21:36;;;;;;;21.23;8.77;;;;;;;7.63;77.92;99192.97;5055148;28;20056;-57
2022/03/05 10:24:31;;;;;;;20.52;9.80;;;;;;;9.39;92.40;99189.91;5054031;28;20056;-59
2022/03/05 10:27:17;;;;;;;21.77;9.75;;;;;;;8.19;56.35;99191.06;5053917;28;20052;-59
2022/03/05 10:30:03;;;;;;;24.35;9.02;;;;;;;8.50;83.56;99185.06;5052389;28;20056;-58
2022/03/05 10:32:49;;;;;;;19.60;8.88;;;;;;;9.62;66.45;99182.50;5053575;28;20067;-59
2022/03/05 10:35:35;;;;;;;24.25;10.55;;;;;;;9.79;64.11;99181.50;5053944;28;20507;-59
2022/03/05 10:38:21;;;;;;;24.08;10.63;;;;;;;9.15;53.14;99187.75;5053412;28;20056;-59
2022/03/05 10:41:07;;;;;;;25.42;11.07;;;;;;;9.14;54.03;99180.81;5030230;28;20064;-56
2022/03/05 10:44:05;;;;;;;26.55;11.68;;;;;;;8.72;59.96;99178.72;5053233;28;20059;-56
2022/03/05 10:46:55;;;;;;;25.88;13.23;;;;;;;11.74;56.91;99170.41;5052551;28;20056;-63
2022/03/05 10:49:40;;;;;;;20.90;10.20;;;;;;;11.98;58.04;99175.78;5052268;28;20044;-62
2022/03/05 10:52:26;;;;;;;20.27;9.63;;;;;;;12.61;51.30;99171.59;5037306;28;20068;-68
2022/03/05 10:55:26;;;;;;;20.48;10.02;;;;;;;11.90;45.86;99172.84;5052882;28;20060;-57
2022/03/05 10:58:17;;;;;;;21.33;10.07;;;;;;;11.67;43.07;99170.00;5053801;28;20048;-58
2022/03/05 11:01:03;;;;;;;20.98;9.77;;;;;;;10.92;53.48;99161.69;5063804;28;20048;-58
2022/03/05 11:03:54;;;;;;;21.05;10.35;;;;;;;11.53;40.64;99169.13;5072781;28;20056;-59
2022/03/05 11:06:42;;;;;;;19.13;8.93;;;;;;;11.03;41.76;99163.63;5053149;28;20044;-58
2022/03/05 11:09:30;;;;;;;17.65;8.80;;;;;;;11.17;43.04;99158.34;5071563;28;20059;-58
2022/03/05 11:12:21;;;;;;;12.73;6.63;;;;;;;12.92;49.50;99156.25;5072304;28;20055;-58
2022/03/05 11:15:10;;;;;;;15.05;7.57;;;;;;;11.95;43.60;99160.25;5072193;28;20079;-58
2022/03/05 11:17:58;;;;;;;18.67;8.75;;;;;;;11.32;42.17;99158.28;5059324;28;20048;-58
2022/03/05 11:20:45;;;;;;;13.80;7.07;;;;;;;11.98;48.24;99153.97;5058230;28;20047;-63
2022/03/05 11:23:32;;;;;;;17.02;8.43;;;;;;;10.63;37.93;99143.41;5048127;28;20067;-59
2022/03/05 11:26:18;;;;;;;17.55;7.95;;;;;;;9.77;40.05;99138.06;5050649;28;20048;-58
2022/03/05 11:29:03;;;;;;;17.90;8.13;;;;;;;8.46;44.82;99136.56;5065030;28;20052;-56
2022/03/05 11:31:50;;;;;;;17.35;8.13;;;;;;;11.73;37.50;99139.88;5060578;28;20052;-61
2022/03/05 11:34:49;;;;;;;14.27;7.57;;;;;;;12.41;36.52;99121.28;5056847;28;20052;-57
2022/03/05 11:37:35;;;;;;;13.82;6.50;;;;;;;12.27;41.53;99122.25;5038291;28;20115;-60
2022/03/05 11:40:42;;;;;;;13.85;7.20;;;;;;;11.06;36.10;99126.72;5069357;28;20055;-62
2022/03/05 11:43:28;;;;;;;15.20;7.00;;;;;;;9.54;38.96;99124.56;5043650;28;20090;-60
2022/03/05 11:46:25;;;;;;;17.38;7.50;;;;;;;10.82;40.79;99112.47;5064443;28;20412;-61
2022/03/05 11:49:12;;;;;;;16.02;7.72;;;;;;;9.23;41.21;99114.09;5051495;28;20056;-59
2022/03/05 11:51:59;;;;;;;17.17;7.93;;;;;;;7.22;41.56;99117.63;5051940;28;20072;-60
2022/03/05 11:55:10;;;;;;;16.58;7.82;;;;;;;6.17;44.87;99114.63;5050869;28;20064;-60
2022/03/05 11:57:57;;;;;;;13.50;6.47;;;;;;;6.58;44.80;99107.59;5067630;28;20048;-60
2022/03/05 12:00:44;;;;;;;13.70;7.28;;;;;;;6.84;42.69;99113.38;5049641;28;20067;-62
2022/03/05 12:03:42;;;;;;;13.82;6.07;;;;;;;6.83;51.48;99104.69;5067613;28;20064;-61
2022/03/05 12:06:28;;;;;;;18.48;6.53;;;;;;;8.12;53.47;99101.81;5056435;28;20059;-62
2022/03/05 12:09:34;;;;;;;18.80;8.15;;;;;;;7.00;43.58;99109.09;5062075;28;20067;-60
2022/03/05 12:12:20;;;;;;;20.38;9.10;;;;;;;7.04;47.19;99101.97;5052771;28;20048;-63
2022/03/05 12:15:06;;;;;;;16.25;7.30;;;;;;;6.58;57.81;99105.00;5062458;28;20372;-61
2022/03/05 12:17:54;;;;;;;22.50;9.63;;;;;;;6.90;50.29;99111.28;5068319;28;20056;-59
2022/03/05 12:20:43;;;;;;;21.05;8.63;;;;;;;7.04;48.59;99120.22;5059103;28;20468;-63
2022/03/05 12:23:30;;;;;;;20.40;8.60;;;;;;;7.05;50.29;99113.25;5056599;28;20052;-61
2022/03/05 12:26:17;;;;;;;17.83;7.57;;;;;;;6.25;52.56;99115.13;5036482;28;20071;-58
2022/03/05 12:29:05;;;;;;;16.15;6.80;;;;;;;6.32;45.83;99117.44;5051247;28;20056;-60
2022/03/05 12:31:51;;;;;;;11.93;5.38;;;;;;;6.62;51.31;99112.59;5056271;28;20047;-62
2022/03/05 12:34:36;;;;;;;11.82;5.10;;;;;;;6.17;45.49;99104.22;5055663;28;20047;-64
2022/03/05 12:37:30;;;;;;;12.55;5.30;;;;;;;6.70;51.40;99117.44;5058573;28;20072;-64
2022/03/05 12:40:15;;;;;;;12.18;5.40;;;;;;;7.24;51.44;99116.66;5063111;28;20067;-65
2022/03/05 12:43:05;;;;;;;11.27;5.10;;;;;;;6.65;51.04;99116.81;5056734;28;20055;-64
2022/03/05 12:45:50;;;;;;;12.00;4.60;;;;;;;7.56;54.12;99122.91;5057781;28;20040;-61
2022/03/05 12:48:36;;;;;;;11.27;4.90;;;;;;;7.63;51.47;99119.94;5067302;28;20063;-60
2022/03/05 12:51:22;;;;;;;14.60;5.35;;;;;;;7.43;55.72;99117.47;5070236;28;20055;-60
2022/03/05 12:54:08;;;;;;;11.25;4.95;;;;;;;7.88;56.53;99117.84;5066280;28;20063;-61
2022/03/05 12:56:58;;;;;;;12.85;6.28;;;;;;;8.40;47.98;99110.78;5056511;28;20072;-63
2022/03/05 12:59:45;;;;;;;13.27;5.75;;;;;;;7.80;51.63;99115.59;5050726;28;20060;-60
2022/03/05 13:02:32;;;;;;;17.48;6.82;;;;;;;7.51;55.72;99115.31;5050544;28;20056;-58